OYREG EKAH-EKRK
Flight info
| Callsign | OYREG |
|---|---|
| Flight time | 0h 28m |
| Altitude | 11000 |
| Route | TNO DCT FISKO |
| Aircraft | B60T/L-SDFGRY/C |
Departure
| Time | 2026-05-08 09:40 |
|---|---|
| Airport | Aarhus Airport (EKAH) |
Arrival
| Time | 2026-05-08 10:09 |
|---|---|
| Airport | Copenhagen Roskilde Airport (EKRK) |
| Time | Latitude | Longitude | Altitude | Speed | Heading |
|---|---|---|---|---|---|
| 2026-05-08 09:23 | 56.30747 | 10.62288 | 80 ft | 0 kts | 238° |
| 2026-05-08 09:24 | 56.30747 | 10.62289 | 80 ft | 0 kts | 238° |
| 2026-05-08 09:32 | 56.30746 | 10.62285 | 83 ft | 2 kts | 238° |
| 2026-05-08 09:32 | 56.30719 | 10.62283 | 80 ft | 6 kts | 144° |
| 2026-05-08 09:32 | 56.30697 | 10.62347 | 80 ft | 6 kts | 114° |
| 2026-05-08 09:33 | 56.30670 | 10.62405 | 80 ft | 7 kts | 154° |
| 2026-05-08 09:33 | 56.30613 | 10.62350 | 80 ft | 13 kts | 222° |
| 2026-05-08 09:33 | 56.30517 | 10.62217 | 73 ft | 22 kts | 232° |
| 2026-05-08 09:33 | 56.30530 | 10.61906 | 80 ft | 27 kts | 279° |
| 2026-05-08 09:34 | 56.30563 | 10.61587 | 83 ft | 26 kts | 279° |
| 2026-05-08 09:34 | 56.30594 | 10.61271 | 81 ft | 26 kts | 280° |
| 2026-05-08 09:34 | 56.30627 | 10.60948 | 79 ft | 27 kts | 279° |
| 2026-05-08 09:34 | 56.30658 | 10.60616 | 78 ft | 27 kts | 281° |
| 2026-05-08 09:35 | 56.30692 | 10.60290 | 81 ft | 26 kts | 281° |
| 2026-05-08 09:35 | 56.30726 | 10.59972 | 80 ft | 26 kts | 282° |
| 2026-05-08 09:35 | 56.30714 | 10.59802 | 84 ft | 16 kts | 214° |
| 2026-05-08 09:35 | 56.30639 | 10.59779 | 81 ft | 0 kts | 182° |
| 2026-05-08 09:38 | 56.30628 | 10.59778 | 82 ft | 6 kts | 182° |
| 2026-05-08 09:39 | 56.30563 | 10.59798 | 82 ft | 11 kts | 142° |
| 2026-05-08 09:39 | 56.30543 | 10.59849 | 82 ft | 0 kts | 103° |
| 2026-05-08 09:40 | 56.30542 | 10.59861 | 82 ft | 12 kts | 101° |
| 2026-05-08 09:40 | 56.30470 | 10.60576 | 86 ft | 99 kts | 99° |
| 2026-05-08 09:40 | 56.30291 | 10.62047 | 363 ft | 133 kts | 102° |
| 2026-05-08 09:40 | 56.30081 | 10.63733 | 1053 ft | 142 kts | 103° |
| 2026-05-08 09:41 | 56.29874 | 10.65508 | 1807 ft | 146 kts | 103° |
| 2026-05-08 09:41 | 56.29669 | 10.67321 | 2572 ft | 148 kts | 100° |
| 2026-05-08 09:41 | 56.29456 | 10.69149 | 3292 ft | 150 kts | 103° |
| 2026-05-08 09:41 | 56.29209 | 10.70981 | 4022 ft | 151 kts | 104° |
| 2026-05-08 09:42 | 56.28973 | 10.72832 | 4761 ft | 152 kts | 103° |
| 2026-05-08 09:42 | 56.28756 | 10.74696 | 5455 ft | 153 kts | 103° |
| 2026-05-08 09:42 | 56.28549 | 10.76575 | 6096 ft | 153 kts | 103° |
| 2026-05-08 09:42 | 56.28356 | 10.78464 | 6768 ft | 154 kts | 103° |
| 2026-05-08 09:43 | 56.28178 | 10.80378 | 7411 ft | 156 kts | 103° |
| 2026-05-08 09:43 | 56.28006 | 10.82305 | 8122 ft | 156 kts | 103° |
| 2026-05-08 09:43 | 56.27810 | 10.84225 | 8824 ft | 154 kts | 113° |
| 2026-05-08 09:43 | 56.27149 | 10.85613 | 9500 ft | 149 kts | 147° |
| 2026-05-08 09:44 | 56.26273 | 10.86593 | 10204 ft | 148 kts | 148° |
| 2026-05-08 09:44 | 56.25402 | 10.87564 | 10824 ft | 147 kts | 148° |
| 2026-05-08 09:44 | 56.24511 | 10.88559 | 11247 ft | 162 kts | 148° |
| 2026-05-08 09:44 | 56.23464 | 10.89730 | 11266 ft | 190 kts | 147° |
| 2026-05-08 09:45 | 56.22318 | 10.91108 | 11266 ft | 205 kts | 146° |
| 2026-05-08 09:45 | 56.21107 | 10.92568 | 11262 ft | 213 kts | 147° |
| 2026-05-08 09:45 | 56.19861 | 10.94052 | 11262 ft | 214 kts | 147° |
| 2026-05-08 09:45 | 56.18628 | 10.95518 | 11258 ft | 211 kts | 147° |
| 2026-05-08 09:46 | 56.17411 | 10.96964 | 11256 ft | 209 kts | 147° |
| 2026-05-08 09:46 | 56.16200 | 10.98404 | 11255 ft | 208 kts | 147° |
| 2026-05-08 09:46 | 56.14995 | 10.99833 | 11254 ft | 207 kts | 147° |
| 2026-05-08 09:46 | 56.13794 | 11.01258 | 11259 ft | 207 kts | 147° |
| 2026-05-08 09:47 | 56.12592 | 11.02683 | 11255 ft | 207 kts | 147° |
| 2026-05-08 09:47 | 56.11390 | 11.04105 | 11255 ft | 207 kts | 147° |
| 2026-05-08 09:47 | 56.10188 | 11.05529 | 11255 ft | 207 kts | 147° |
| 2026-05-08 09:47 | 56.09004 | 11.06927 | 11255 ft | 207 kts | 147° |
| 2026-05-08 09:48 | 56.07803 | 11.08347 | 11252 ft | 207 kts | 147° |
| 2026-05-08 09:48 | 56.06604 | 11.09762 | 11256 ft | 207 kts | 147° |
| 2026-05-08 09:48 | 56.05403 | 11.11178 | 11256 ft | 207 kts | 147° |
| 2026-05-08 09:48 | 56.04199 | 11.12598 | 11256 ft | 207 kts | 147° |
| 2026-05-08 09:49 | 56.02995 | 11.14015 | 11259 ft | 207 kts | 147° |
| 2026-05-08 09:49 | 56.01792 | 11.15432 | 11259 ft | 207 kts | 147° |
| 2026-05-08 09:49 | 56.00589 | 11.16846 | 11256 ft | 207 kts | 147° |
| 2026-05-08 09:49 | 55.99386 | 11.18261 | 11256 ft | 207 kts | 147° |
| 2026-05-08 09:50 | 55.98180 | 11.19676 | 11256 ft | 207 kts | 147° |
| 2026-05-08 09:50 | 55.96974 | 11.21092 | 11256 ft | 207 kts | 147° |
| 2026-05-08 09:50 | 55.95768 | 11.22506 | 11256 ft | 207 kts | 147° |
| 2026-05-08 09:50 | 55.94577 | 11.23901 | 11256 ft | 207 kts | 147° |
| 2026-05-08 09:51 | 55.93371 | 11.25312 | 11254 ft | 207 kts | 147° |
| 2026-05-08 09:51 | 55.92165 | 11.26724 | 11254 ft | 207 kts | 147° |
| 2026-05-08 09:51 | 55.90961 | 11.28131 | 11254 ft | 207 kts | 147° |
| 2026-05-08 09:51 | 55.89753 | 11.29542 | 11254 ft | 207 kts | 147° |
| 2026-05-08 09:52 | 55.88546 | 11.30951 | 11254 ft | 207 kts | 147° |
| 2026-05-08 09:52 | 55.87331 | 11.32368 | 11103 ft | 210 kts | 147° |
| 2026-05-08 09:52 | 55.86107 | 11.33793 | 10912 ft | 209 kts | 146° |
| 2026-05-08 09:52 | 55.84892 | 11.35209 | 10721 ft | 208 kts | 146° |
| 2026-05-08 09:53 | 55.83680 | 11.36619 | 10539 ft | 208 kts | 146° |
| 2026-05-08 09:53 | 55.82471 | 11.38024 | 10368 ft | 207 kts | 146° |
| 2026-05-08 09:53 | 55.81271 | 11.39421 | 10174 ft | 206 kts | 146° |
| 2026-05-08 09:53 | 55.80071 | 11.40813 | 9993 ft | 205 kts | 146° |
| 2026-05-08 09:54 | 55.78889 | 11.42185 | 9836 ft | 205 kts | 146° |
| 2026-05-08 09:54 | 55.77725 | 11.43646 | 9646 ft | 204 kts | 136° |
| 2026-05-08 09:54 | 55.76909 | 11.45701 | 9451 ft | 205 kts | 117° |
| 2026-05-08 09:54 | 55.76311 | 11.47999 | 9266 ft | 205 kts | 116° |
| 2026-05-08 09:55 | 55.75698 | 11.50277 | 9074 ft | 204 kts | 116° |
| 2026-05-08 09:55 | 55.75084 | 11.52554 | 8890 ft | 204 kts | 116° |
| 2026-05-08 09:55 | 55.74474 | 11.54828 | 8711 ft | 204 kts | 116° |
| 2026-05-08 09:55 | 55.73866 | 11.57096 | 8532 ft | 204 kts | 115° |
| 2026-05-08 09:56 | 55.73256 | 11.59369 | 8360 ft | 203 kts | 115° |
| 2026-05-08 09:56 | 55.72646 | 11.61631 | 8192 ft | 203 kts | 115° |
| 2026-05-08 09:56 | 55.72034 | 11.63892 | 8018 ft | 203 kts | 115° |
| 2026-05-08 09:56 | 55.71426 | 11.66151 | 7848 ft | 203 kts | 115° |
| 2026-05-08 09:57 | 55.70207 | 11.70665 | 7413 ft | 203 kts | 115° |
| 2026-05-08 09:57 | 55.69596 | 11.72923 | 7113 ft | 203 kts | 115° |
| 2026-05-08 09:57 | 55.68984 | 11.75176 | 6806 ft | 203 kts | 115° |
| 2026-05-08 09:58 | 55.68372 | 11.77427 | 6483 ft | 202 kts | 115° |
| 2026-05-08 09:58 | 55.67768 | 11.79637 | 6154 ft | 195 kts | 114° |
| 2026-05-08 09:58 | 55.67186 | 11.81781 | 5839 ft | 192 kts | 114° |
| 2026-05-08 09:58 | 55.66608 | 11.83895 | 5511 ft | 190 kts | 114° |
| 2026-05-08 09:59 | 55.66035 | 11.85989 | 5210 ft | 188 kts | 114° |
| 2026-05-08 09:59 | 55.65510 | 11.87899 | 4918 ft | 188 kts | 113° |
| 2026-05-08 09:59 | 55.64951 | 11.89988 | 4595 ft | 186 kts | 108° |
| 2026-05-08 09:59 | 55.64880 | 11.92068 | 4313 ft | 185 kts | 76° |
| 2026-05-08 10:00 | 55.65396 | 11.94158 | 4023 ft | 186 kts | 65° |
| 2026-05-08 10:00 | 55.65885 | 11.96260 | 3752 ft | 184 kts | 76° |
| 2026-05-08 10:00 | 55.66315 | 11.98392 | 3470 ft | 185 kts | 66° |
| 2026-05-08 10:00 | 55.66919 | 12.00407 | 3216 ft | 186 kts | 63° |
| 2026-05-08 10:01 | 55.67538 | 12.02405 | 2999 ft | 182 kts | 64° |
| 2026-05-08 10:01 | 55.68116 | 12.04341 | 2995 ft | 174 kts | 71° |
| 2026-05-08 10:01 | 55.68421 | 12.06377 | 2992 ft | 169 kts | 81° |
| 2026-05-08 10:01 | 55.68700 | 12.08402 | 2998 ft | 171 kts | 78° |
| 2026-05-08 10:02 | 55.68980 | 12.10465 | 2993 ft | 173 kts | 78° |
| 2026-05-08 10:02 | 55.69311 | 12.12501 | 2987 ft | 170 kts | 73° |
| 2026-05-08 10:02 | 55.69710 | 12.14480 | 2982 ft | 172 kts | 73° |
| 2026-05-08 10:02 | 55.70112 | 12.16468 | 2991 ft | 172 kts | 73° |
| 2026-05-08 10:03 | 55.70523 | 12.18467 | 2988 ft | 173 kts | 73° |
| 2026-05-08 10:03 | 55.70931 | 12.20490 | 2978 ft | 175 kts | 73° |
| 2026-05-08 10:03 | 55.71333 | 12.22490 | 2983 ft | 173 kts | 73° |
| 2026-05-08 10:03 | 55.71737 | 12.24506 | 2985 ft | 171 kts | 73° |
| 2026-05-08 10:04 | 55.72023 | 12.26338 | 2976 ft | 142 kts | 95° |
| 2026-05-08 10:04 | 55.71571 | 12.27752 | 2974 ft | 136 kts | 148° |
| 2026-05-08 10:04 | 55.70649 | 12.27842 | 2968 ft | 141 kts | 201° |
| 2026-05-08 10:04 | 55.69834 | 12.26868 | 2979 ft | 142 kts | 210° |
| 2026-05-08 10:05 | 55.69025 | 12.25812 | 2856 ft | 147 kts | 214° |
| 2026-05-08 10:05 | 55.68233 | 12.24657 | 2670 ft | 148 kts | 216° |
| 2026-05-08 10:05 | 55.67441 | 12.23464 | 2434 ft | 151 kts | 217° |
| 2026-05-08 10:05 | 55.66743 | 12.22042 | 2194 ft | 151 kts | 218° |
| 2026-05-08 10:06 | 55.65919 | 12.21035 | 1875 ft | 134 kts | 206° |
| 2026-05-08 10:06 | 55.65208 | 12.20226 | 1645 ft | 114 kts | 205° |
| 2026-05-08 10:06 | 55.64560 | 12.19517 | 1485 ft | 106 kts | 204° |
| 2026-05-08 10:06 | 55.63921 | 12.18835 | 1328 ft | 106 kts | 202° |
| 2026-05-08 10:07 | 55.63288 | 12.18170 | 1189 ft | 106 kts | 202° |
| 2026-05-08 10:07 | 55.62652 | 12.17498 | 1036 ft | 106 kts | 204° |
| 2026-05-08 10:07 | 55.62028 | 12.16827 | 880 ft | 105 kts | 205° |
| 2026-05-08 10:07 | 55.61400 | 12.16116 | 704 ft | 107 kts | 204° |
| 2026-05-08 10:08 | 55.60768 | 12.15426 | 576 ft | 105 kts | 201° |
| 2026-05-08 10:08 | 55.60159 | 12.14784 | 389 ft | 101 kts | 198° |
| 2026-05-08 10:08 | 55.59537 | 12.14163 | 261 ft | 102 kts | 201° |
| 2026-05-08 10:08 | 55.58964 | 12.13562 | 143 ft | 89 kts | 200° |
| 2026-05-08 10:09 | 55.58540 | 12.13133 | 138 ft | 35 kts | 215° |
| 2026-05-08 10:09 | 55.58429 | 12.12997 | 136 ft | 4 kts | 240° |
| 2026-05-08 10:09 | 55.58458 | 12.12865 | 137 ft | 15 kts | 303° |
| 2026-05-08 10:09 | 55.58501 | 12.12774 | 136 ft | 12 kts | 353° |
| 2026-05-08 10:10 | 55.58573 | 12.12831 | 136 ft | 11 kts | 31° |
| 2026-05-08 10:10 | 55.58634 | 12.12898 | 136 ft | 10 kts | 31° |
| 2026-05-08 10:10 | 55.58700 | 12.12971 | 136 ft | 12 kts | 29° |
| 2026-05-08 10:10 | 55.58779 | 12.13045 | 137 ft | 14 kts | 28° |
| 2026-05-08 10:11 | 55.58867 | 12.13128 | 137 ft | 13 kts | 22° |
| 2026-05-08 10:11 | 55.58919 | 12.13020 | 137 ft | 17 kts | 295° |
| 2026-05-08 10:11 | 55.58975 | 12.12815 | 137 ft | 18 kts | 296° |
| 2026-05-08 10:11 | 55.59021 | 12.12778 | 137 ft | 9 kts | 28° |
| 2026-05-08 10:12 | 55.59026 | 12.12783 | 137 ft | 0 kts | 35° |